createdAt,value
2023-01-23T00:00:47.076Z,103817.41
2023-01-23T00:03:34.116Z,103833.19
2023-01-23T00:06:20.682Z,103838.94
2023-01-23T00:09:07.197Z,103851.72
2023-01-23T00:11:53.879Z,103864.22
2023-01-23T00:14:41.592Z,103881.72
2023-01-23T00:17:29.038Z,103888.13
2023-01-23T00:20:15.994Z,103896.22
2023-01-23T00:23:02.387Z,103905.19
2023-01-23T00:25:48.992Z,103915.44
2023-01-23T00:28:35.877Z,103920.94
2023-01-23T00:31:26.113Z,103912.16
2023-01-23T00:34:15.134Z,103931.28
2023-01-23T00:37:01.680Z,103931.00
2023-01-23T00:39:50.878Z,103930.78
2023-01-23T00:42:37.215Z,103934.69
2023-01-23T00:45:23.674Z,103944.22
2023-01-23T00:48:11.947Z,103946.03
2023-01-23T00:50:58.796Z,103954.75
2023-01-23T00:53:46.949Z,103949.47
2023-01-23T00:56:33.665Z,103945.78
2023-01-23T00:59:20.355Z,103956.22
2023-01-23T01:02:07.096Z,103958.06
2023-01-23T01:04:55.408Z,103946.47
2023-01-23T01:07:42.258Z,103945.72
2023-01-23T01:10:29.642Z,103952.16
2023-01-23T01:13:19.518Z,103949.19
2023-01-23T01:16:07.237Z,103939.66
2023-01-23T01:18:55.413Z,103934.81
2023-01-23T01:21:43.986Z,103942.91
2023-01-23T01:24:31.387Z,103953.38
2023-01-23T01:27:17.940Z,103961.16
2023-01-23T01:30:04.927Z,103980.22
2023-01-23T01:32:51.364Z,103980.97
2023-01-23T01:35:40.191Z,103986.69
2023-01-23T01:38:28.748Z,103980.63
2023-01-23T01:41:18.656Z,103992.78
2023-01-23T01:44:05.616Z,103985.34
2023-01-23T01:46:52.716Z,103987.53
2023-01-23T01:49:39.546Z,103987.91
2023-01-23T01:52:26.997Z,103998.84
2023-01-23T01:55:15.337Z,103990.88
2023-01-23T01:58:02.212Z,104007.63
2023-01-23T02:00:49.214Z,104015.31
2023-01-23T02:03:36.473Z,104004.91
2023-01-23T02:06:23.702Z,104010.19
2023-01-23T02:09:16.626Z,104022.22
2023-01-23T02:12:04.800Z,104030.00
2023-01-23T02:14:51.179Z,104020.59
2023-01-23T02:17:38.210Z,104018.56
2023-01-23T02:20:26.057Z,104013.94
2023-01-23T02:23:23.882Z,104023.34
2023-01-23T02:26:15.374Z,104029.22
2023-01-23T02:29:02.075Z,104038.69
2023-01-23T02:31:53.331Z,104049.88
2023-01-23T02:34:42.648Z,104044.38
2023-01-23T02:37:34.459Z,104044.25
2023-01-23T02:40:31.975Z,104044.78
2023-01-23T02:43:24.686Z,104033.44
2023-01-23T02:46:19.052Z,104046.59
2023-01-23T02:49:05.648Z,104045.97
2023-01-23T02:51:55.570Z,104059.19
2023-01-23T02:54:42.999Z,104053.28
2023-01-23T02:57:29.848Z,104053.50
2023-01-23T03:00:20.586Z,104056.63
2023-01-23T03:03:08.599Z,104050.34
2023-01-23T03:05:55.679Z,104048.00
2023-01-23T03:08:47.376Z,104045.84
2023-01-23T03:11:34.243Z,104040.66
2023-01-23T03:14:24.657Z,104049.50
2023-01-23T03:17:14.811Z,104054.09
2023-01-23T03:20:01.961Z,104052.69
2023-01-23T03:22:48.444Z,104058.66
2023-01-23T03:25:34.721Z,104058.22
2023-01-23T03:28:39.820Z,104041.91
2023-01-23T03:31:26.455Z,104033.91
2023-01-23T03:34:17.793Z,104021.09
2023-01-23T03:37:04.144Z,104035.09
2023-01-23T03:40:10.523Z,104023.47
2023-01-23T03:42:56.959Z,104017.03
2023-01-23T03:45:47.319Z,104014.19
2023-01-23T03:48:34.304Z,104019.34
2023-01-23T03:51:22.406Z,104031.00
2023-01-23T03:54:09.725Z,104019.38
2023-01-23T03:56:56.799Z,104024.91
2023-01-23T04:00:22.347Z,104018.16
2023-01-23T04:03:16.694Z,104012.59
2023-01-23T04:06:03.575Z,104008.59
2023-01-23T04:08:51.131Z,104004.66
2023-01-23T04:11:37.884Z,104013.59
2023-01-23T04:14:30.406Z,104016.00
2023-01-23T04:17:17.669Z,104005.28
2023-01-23T04:20:05.517Z,104003.91
2023-01-23T04:22:51.892Z,104003.91
2023-01-23T04:25:40.125Z,104009.91
2023-01-23T04:28:31.724Z,104010.66
2023-01-23T04:31:18.495Z,104003.41
2023-01-23T04:34:05.112Z,104021.31
2023-01-23T04:36:52.097Z,104011.66
2023-01-23T04:39:38.912Z,104007.22
2023-01-23T04:42:26.515Z,104008.19
2023-01-23T04:45:36.979Z,104015.59
2023-01-23T04:48:43.845Z,104004.34
2023-01-23T04:51:31.759Z,104010.22
2023-01-23T04:54:18.888Z,104012.38
2023-01-23T04:57:05.494Z,104011.28
2023-01-23T04:59:54.884Z,104004.34
2023-01-23T05:02:42.123Z,103988.91
2023-01-23T05:05:29.353Z,103983.97
2023-01-23T05:08:19.273Z,103976.34
2023-01-23T05:11:13.947Z,103977.13
2023-01-23T05:14:00.490Z,103987.19
2023-01-23T05:16:50.870Z,103980.53
2023-01-23T05:19:39.739Z,103986.63
2023-01-23T05:22:26.745Z,103981.78
2023-01-23T05:25:13.006Z,103986.91
2023-01-23T05:27:59.978Z,103987.66
2023-01-23T05:30:47.411Z,103994.75
2023-01-23T05:33:44.122Z,104014.47
2023-01-23T05:36:30.850Z,103992.72
2023-01-23T05:39:18.342Z,103993.06
2023-01-23T05:42:05.489Z,104004.75
2023-01-23T05:44:55.088Z,104005.22
2023-01-23T05:47:48.633Z,104001.34
2023-01-23T05:50:38.829Z,103991.34
2023-01-23T05:53:24.986Z,103990.78
2023-01-23T05:56:12.463Z,103987.97
2023-01-23T05:59:22.155Z,103964.09
2023-01-23T06:02:21.238Z,103953.47
2023-01-23T06:05:42.831Z,103955.94
2023-01-23T06:08:36.200Z,103965.13
2023-01-23T06:11:23.443Z,103952.53
2023-01-23T06:14:10.064Z,103949.03
2023-01-23T06:16:56.734Z,103958.97
2023-01-23T06:19:43.333Z,103958.19
2023-01-23T06:22:31.971Z,103965.34
2023-01-23T06:25:25.816Z,103979.63
2023-01-23T06:28:14.353Z,104002.06
2023-01-23T06:31:03.953Z,103991.59
2023-01-23T06:33:58.151Z,103984.09
2023-01-23T06:36:50.499Z,103997.78
2023-01-23T06:39:38.793Z,103989.47
2023-01-23T06:42:26.999Z,104003.03
2023-01-23T06:45:13.479Z,104003.47
2023-01-23T06:48:00.437Z,104004.69
2023-01-23T06:50:48.352Z,104012.19
2023-01-23T06:53:35.338Z,104005.69
2023-01-23T06:56:23.478Z,103988.25
2023-01-23T06:59:10.387Z,103981.00
2023-01-23T07:01:57.365Z,103956.88
2023-01-23T07:04:52.007Z,103955.09
2023-01-23T07:07:39.733Z,103940.56
2023-01-23T07:10:26.392Z,103940.09
2023-01-23T07:13:14.525Z,103940.94
2023-01-23T07:16:01.780Z,103927.16
2023-01-23T07:18:48.594Z,103903.00
2023-01-23T07:21:35.772Z,103894.50
2023-01-23T07:24:22.250Z,103885.94
2023-01-23T07:27:08.742Z,103868.50
2023-01-23T07:29:56.802Z,103886.38
2023-01-23T07:32:43.739Z,103880.22
2023-01-23T07:35:30.438Z,103878.78
2023-01-23T07:38:17.098Z,103897.72
2023-01-23T07:41:03.667Z,103916.34
2023-01-23T07:43:50.234Z,103911.06
2023-01-23T07:46:38.152Z,103910.34
2023-01-23T07:49:24.776Z,103909.09
2023-01-23T07:52:11.234Z,103902.41
2023-01-23T07:54:57.920Z,103917.91
2023-01-23T07:57:44.393Z,103904.16
2023-01-23T08:00:31.428Z,103910.41
2023-01-23T08:03:20.781Z,103914.22
2023-01-23T08:06:08.480Z,103896.41
2023-01-23T08:08:54.751Z,103905.03
2023-01-23T08:11:41.161Z,103897.28
2023-01-23T08:14:28.042Z,103874.50
2023-01-23T08:17:14.501Z,103857.50
2023-01-23T08:20:02.474Z,103837.13
2023-01-23T08:22:49.051Z,103827.63
2023-01-23T08:25:35.904Z,103819.28
2023-01-23T08:28:24.486Z,103809.03
2023-01-23T08:31:13.116Z,103804.00
2023-01-23T08:33:59.966Z,103791.56
2023-01-23T08:36:48.081Z,103758.72
2023-01-23T08:39:35.798Z,103755.72
2023-01-23T08:42:22.100Z,103752.63
2023-01-23T08:45:09.955Z,103742.50
2023-01-23T08:47:57.740Z,103720.25
2023-01-23T08:50:44.625Z,103708.88
2023-01-23T08:53:33.225Z,103719.84
2023-01-23T08:56:22.185Z,103733.44
2023-01-23T08:59:09.039Z,103722.69
2023-01-23T09:01:55.857Z,103733.03
2023-01-23T09:04:42.801Z,103713.84
2023-01-23T09:07:29.373Z,103704.06
2023-01-23T09:10:18.802Z,103696.13
2023-01-23T09:13:05.806Z,103677.72
2023-01-23T09:15:52.757Z,103655.66
2023-01-23T09:18:39.672Z,103656.22
2023-01-23T09:21:26.585Z,103634.84
2023-01-23T09:24:13.325Z,103605.22
2023-01-23T09:27:01.248Z,103591.06
2023-01-23T09:29:47.790Z,103563.25
2023-01-23T09:32:34.497Z,103551.22
2023-01-23T09:35:21.320Z,103521.66
2023-01-23T09:38:08.485Z,103507.84
2023-01-23T09:40:57.534Z,103505.44
2023-01-23T09:43:52.398Z,103532.78
2023-01-23T09:46:44.167Z,103509.78
2023-01-23T09:49:38.348Z,103519.28
2023-01-23T09:52:28.267Z,103540.50
2023-01-23T09:55:19.571Z,103511.16
2023-01-23T09:58:07.282Z,103517.88
2023-01-23T10:00:55.558Z,103493.00
2023-01-23T10:03:42.536Z,103472.19
2023-01-23T10:06:31.130Z,103471.31
2023-01-23T10:09:38.310Z,103448.38
2023-01-23T10:12:39.032Z,103440.13
2023-01-23T10:15:34.342Z,103408.44
2023-01-23T10:18:26.868Z,103393.66
2023-01-23T10:21:22.351Z,103383.63
2023-01-23T10:24:28.289Z,103374.19
2023-01-23T10:27:19.809Z,103358.13
2023-01-23T10:30:20.158Z,103354.16
2023-01-23T10:33:13.174Z,103338.50
2023-01-23T10:36:05.277Z,103322.19
2023-01-23T10:39:00.487Z,103320.81
2023-01-23T10:41:51.207Z,103329.56
2023-01-23T10:44:37.915Z,103353.81
2023-01-23T10:47:33.156Z,103370.91
2023-01-23T10:50:36.532Z,103381.19
2023-01-23T10:53:25.023Z,103380.81
2023-01-23T10:56:17.929Z,103389.00
2023-01-23T10:59:06.462Z,103397.03
2023-01-23T11:02:01.958Z,103400.19
2023-01-23T11:04:51.711Z,103407.03
2023-01-23T11:07:40.319Z,103398.31
2023-01-23T11:10:28.371Z,103418.50
2023-01-23T11:13:27.289Z,103418.38
2023-01-23T11:16:15.898Z,103408.00
2023-01-23T11:19:13.165Z,103408.19
2023-01-23T11:22:02.150Z,103405.16
2023-01-23T11:24:49.057Z,103402.22
2023-01-23T11:27:36.979Z,103395.22
2023-01-23T11:30:32.617Z,103386.25
2023-01-23T11:33:34.240Z,103369.13
2023-01-23T11:36:41.976Z,103373.56
2023-01-23T11:39:42.426Z,103377.25
2023-01-23T11:42:29.454Z,103392.28
2023-01-23T11:45:34.490Z,103425.34
2023-01-23T11:48:35.918Z,103450.19
2023-01-23T11:51:32.597Z,103458.03
2023-01-23T11:54:37.474Z,103478.31
2023-01-23T11:57:33.843Z,103477.28
2023-01-23T12:00:33.113Z,103487.31
2023-01-23T12:03:43.144Z,103497.84
2023-01-23T12:06:40.200Z,103490.97
2023-01-23T12:09:32.754Z,103474.19
2023-01-23T12:12:30.982Z,103462.53
2023-01-23T12:15:31.695Z,103444.28
2023-01-23T12:18:30.106Z,103414.00
2023-01-23T12:21:20.153Z,103370.69
2023-01-23T12:24:18.478Z,103344.47
2023-01-23T12:27:15.073Z,103318.81
2023-01-23T12:30:27.937Z,103306.13
2023-01-23T12:33:29.765Z,103309.47
2023-01-23T12:37:08.108Z,103302.81
2023-01-23T12:40:08.440Z,103305.94
2023-01-23T12:43:01.617Z,103311.47
2023-01-23T12:45:51.950Z,103334.16
2023-01-23T12:48:44.240Z,103342.50
2023-01-23T12:51:37.904Z,103342.97
2023-01-23T12:54:32.783Z,103344.09
2023-01-23T12:57:52.810Z,103344.22
2023-01-23T13:00:57.981Z,103366.72
2023-01-23T13:03:59.276Z,103366.22
2023-01-23T13:07:03.622Z,103377.28
2023-01-23T13:10:06.631Z,103362.53
2023-01-23T13:12:57.184Z,103370.94
2023-01-23T13:15:44.567Z,103371.06
2023-01-23T13:18:51.550Z,103379.94
2023-01-23T13:21:57.739Z,103383.28
2023-01-23T13:25:05.698Z,103389.31
2023-01-23T13:27:55.659Z,103391.75
2023-01-23T13:30:43.254Z,103398.19
2023-01-23T13:33:58.740Z,103398.34
2023-01-23T13:36:50.445Z,103399.13
2023-01-23T13:39:38.106Z,103397.91
2023-01-23T13:42:35.720Z,103391.22
2023-01-23T13:45:28.087Z,103394.81
2023-01-23T14:20:43.746Z,103336.16
2023-01-23T14:23:36.874Z,103341.97
2023-01-23T14:26:27.112Z,103327.84
2023-01-23T14:29:21.704Z,103336.00
2023-01-23T14:32:23.329Z,103347.16
2023-01-23T14:35:17.567Z,103337.31
2023-01-23T14:38:08.029Z,103337.69
2023-01-23T14:40:57.459Z,103340.75
2023-01-23T14:43:47.006Z,103330.31
2023-01-23T14:46:40.082Z,103352.00
2023-01-23T14:49:30.685Z,103340.94
2023-01-23T14:52:24.061Z,103348.22
2023-01-23T14:55:29.348Z,103361.31
2023-01-23T14:58:23.414Z,103345.19
2023-01-23T15:01:11.967Z,103347.31
2023-01-23T15:04:01.251Z,103349.69
2023-01-23T15:06:53.466Z,103335.06
2023-01-23T15:09:42.858Z,103353.66
2023-01-23T15:12:29.687Z,103348.22
2023-01-23T15:15:20.402Z,103350.59
2023-01-23T15:18:22.654Z,103357.16
2023-01-23T15:21:10.066Z,103365.19
2023-01-23T15:24:05.638Z,103389.84
2023-01-23T15:27:04.593Z,103385.31
2023-01-23T15:29:51.591Z,103393.81
2023-01-23T15:32:40.122Z,103400.44
2023-01-23T15:35:27.167Z,103411.50
2023-01-23T15:38:17.515Z,103408.81
2023-01-23T15:41:10.161Z,103399.00
2023-01-23T15:43:56.895Z,103400.47
2023-01-23T15:46:43.609Z,103401.34
2023-01-23T15:49:33.109Z,103395.25
2023-01-23T15:52:22.574Z,103390.81
2023-01-23T15:55:12.255Z,103387.44
2023-01-23T15:57:58.849Z,103381.63
2023-01-23T16:00:45.540Z,103384.16
2023-01-23T16:03:32.707Z,103396.75
2023-01-23T16:06:22.492Z,103400.81
2023-01-23T16:09:19.386Z,103395.91
2023-01-23T16:12:06.387Z,103417.28
2023-01-23T16:14:53.419Z,103407.91
2023-01-23T16:17:40.047Z,103400.03
2023-01-23T16:20:29.526Z,103390.88
2023-01-23T16:23:20.740Z,103386.38
2023-01-23T16:26:07.585Z,103373.69
2023-01-23T16:29:05.073Z,103363.50
2023-01-23T16:32:00.219Z,103363.50
2023-01-23T16:34:46.740Z,103366.91
2023-01-23T16:37:34.471Z,103360.25
2023-01-23T16:40:25.185Z,103378.34
2023-01-23T16:43:11.725Z,103376.06
2023-01-23T16:45:58.360Z,103382.81
2023-01-23T16:48:44.854Z,103372.50
2023-01-23T16:51:33.467Z,103379.88
2023-01-23T16:54:21.559Z,103384.06
2023-01-23T16:57:13.892Z,103375.94
2023-01-23T17:00:00.423Z,103378.56
2023-01-23T17:02:49.511Z,103386.53
2023-01-23T17:05:35.785Z,103379.31
2023-01-23T17:08:24.934Z,103391.00
2023-01-23T17:11:19.639Z,103387.66
2023-01-23T17:14:14.179Z,103380.38
2023-01-23T17:17:06.021Z,103381.22
2023-01-23T17:19:52.995Z,103387.66
2023-01-23T17:22:42.482Z,103383.13
2023-01-23T17:25:29.034Z,103384.50
2023-01-23T17:28:15.704Z,103387.94
2023-01-23T17:31:04.900Z,103382.16
2023-01-23T17:33:52.541Z,103380.50
2023-01-23T17:36:39.041Z,103374.66
2023-01-23T17:39:25.811Z,103391.28
2023-01-23T17:42:14.573Z,103374.00
2023-01-23T17:45:01.571Z,103374.28
2023-01-23T17:47:53.194Z,103377.84
2023-01-23T17:50:39.663Z,103387.31
2023-01-23T17:53:27.810Z,103392.34
2023-01-23T17:56:15.091Z,103389.13
2023-01-23T17:59:01.895Z,103395.22
2023-01-23T18:01:48.739Z,103392.38
2023-01-23T18:04:37.054Z,103403.72
2023-01-23T18:07:24.147Z,103409.22
2023-01-23T18:10:12.768Z,103411.16
2023-01-23T18:13:09.764Z,103416.13
2023-01-23T18:16:08.759Z,103414.56
2023-01-23T18:19:01.185Z,103423.22
2023-01-23T18:21:52.525Z,103423.25
2023-01-23T18:24:39.656Z,103423.44
2023-01-23T18:27:27.776Z,103418.09
2023-01-23T18:30:28.465Z,103413.78
2023-01-23T18:33:29.650Z,103409.03
2023-01-23T18:36:39.600Z,103412.41
2023-01-23T18:39:38.676Z,103413.72
2023-01-23T18:42:33.238Z,103413.22
2023-01-23T18:45:26.966Z,103416.19
2023-01-23T18:48:24.773Z,103410.09
2023-01-23T18:51:26.088Z,103412.09
2023-01-23T18:54:28.976Z,103402.91
2023-01-23T18:57:37.658Z,103408.16
2023-01-23T19:00:30.601Z,103416.09
2023-01-23T19:03:19.189Z,103411.78
2023-01-23T19:06:12.850Z,103412.19
2023-01-23T19:08:59.579Z,103413.63
2023-01-23T19:12:01.107Z,103422.53
2023-01-23T19:15:03.110Z,103419.50
2023-01-23T19:17:54.081Z,103416.28
2023-01-23T19:20:46.688Z,103420.28
2023-01-23T19:23:40.433Z,103427.03
2023-01-23T19:26:29.755Z,103422.28
2023-01-23T19:29:22.399Z,103431.69
2023-01-23T19:32:11.884Z,103433.63
2023-01-23T19:35:13.069Z,103430.94
2023-01-23T19:38:00.434Z,103424.09
2023-01-23T19:40:47.261Z,103429.84
2023-01-23T19:43:34.099Z,103434.88
2023-01-23T19:46:23.050Z,103429.53
2023-01-23T19:49:11.348Z,103427.09
2023-01-23T19:51:58.146Z,103426.34
2023-01-23T19:54:45.108Z,103434.78
2023-01-23T19:57:31.427Z,103445.25
2023-01-23T20:00:19.369Z,103439.00
2023-01-23T20:03:06.176Z,103450.06
2023-01-23T20:05:55.720Z,103454.69
2023-01-23T20:08:42.823Z,103454.28
2023-01-23T20:11:29.643Z,103453.03
2023-01-23T20:14:16.828Z,103459.75
2023-01-23T20:17:03.613Z,103462.91
2023-01-23T20:19:50.263Z,103464.47
2023-01-23T20:22:38.471Z,103464.72
2023-01-23T20:25:25.476Z,103462.22
2023-01-23T20:28:12.207Z,103471.16
2023-01-23T20:30:58.824Z,103462.44
2023-01-23T20:33:45.757Z,103435.34
2023-01-23T20:36:32.324Z,103441.19
2023-01-23T20:39:20.344Z,103452.38
2023-01-23T20:42:06.823Z,103457.22
2023-01-23T20:44:53.567Z,103454.19
2023-01-23T20:47:40.292Z,103458.00
2023-01-23T20:50:26.997Z,103449.81
2023-01-23T20:53:34.132Z,103441.28
2023-01-23T20:56:27.497Z,103450.31
2023-01-23T20:59:19.125Z,103452.78
2023-01-23T21:02:24.173Z,103467.47
2023-01-23T21:05:10.804Z,103467.94
2023-01-23T21:07:58.256Z,103464.38
2023-01-23T21:10:44.800Z,103440.53
2023-01-23T21:13:32.881Z,103442.25
2023-01-23T21:16:19.668Z,103445.47
2023-01-23T21:19:06.302Z,103443.44
2023-01-23T21:21:53.009Z,103451.47
2023-01-23T21:24:39.757Z,103448.53
2023-01-23T21:27:26.139Z,103458.34
2023-01-23T21:30:14.460Z,103477.84
2023-01-23T21:33:01.277Z,103474.97
2023-01-23T21:35:49.532Z,103471.69
2023-01-23T21:38:36.076Z,103469.03
2023-01-23T21:41:23.397Z,103469.19
2023-01-23T21:44:10.408Z,103459.28
2023-01-23T21:46:57.939Z,103452.00
2023-01-23T21:49:44.543Z,103456.31
2023-01-23T21:52:31.293Z,103455.53
2023-01-23T21:55:17.890Z,103455.56
2023-01-23T21:58:04.496Z,103458.81
2023-01-23T22:01:15.285Z,103462.72
2023-01-23T22:04:05.055Z,103458.72
2023-01-23T22:06:54.206Z,103472.03
2023-01-23T22:09:41.445Z,103470.44
2023-01-23T22:12:28.945Z,103470.66
2023-01-23T22:15:15.903Z,103463.47
2023-01-23T22:18:02.324Z,103459.81
2023-01-23T22:20:54.191Z,103465.78
2023-01-23T22:23:41.321Z,103473.47
2023-01-23T22:26:28.323Z,103464.59
2023-01-23T22:29:14.901Z,103476.50
2023-01-23T22:32:01.828Z,103485.50
2023-01-23T22:34:48.618Z,103485.03
2023-01-23T22:37:36.408Z,103485.25
2023-01-23T22:40:22.888Z,103482.94
2023-01-23T22:43:10.436Z,103482.16
2023-01-23T22:46:06.945Z,103490.75
2023-01-23T22:48:53.400Z,103491.66
2023-01-23T22:51:40.009Z,103489.44
2023-01-23T22:54:28.318Z,103487.09
2023-01-23T22:57:14.647Z,103480.66
2023-01-23T23:03:11.074Z,103482.28
2023-01-23T23:05:58.650Z,103462.88
2023-01-23T23:08:47.721Z,103478.00
2023-01-23T23:11:37.280Z,103480.09
2023-01-23T23:14:24.240Z,103493.75
2023-01-23T23:17:11.108Z,103482.94
2023-01-23T23:19:57.407Z,103506.44
2023-01-23T23:22:44.298Z,103501.94
2023-01-23T23:25:30.377Z,103505.69
2023-01-23T23:28:18.176Z,103494.88
2023-01-23T23:31:04.939Z,103498.69
2023-01-23T23:33:51.647Z,103498.19
2023-01-23T23:36:37.923Z,103497.09
2023-01-23T23:39:25.842Z,103505.75
2023-01-23T23:42:12.707Z,103500.06
2023-01-23T23:45:00.912Z,103497.75
2023-01-23T23:47:47.540Z,103505.22
2023-01-23T23:50:34.814Z,103508.41
2023-01-23T23:53:22.185Z,103497.25
2023-01-23T23:56:14.018Z,103500.78
2023-01-23T23:59:00.187Z,103504.72
